Emerald Princess — ZCDP8 — position and weather

sailwx.info

Track history (hours):
 
Tides and Currents Weather Stations Pressure Air Temp Water Temp Dewpoint Dewpoint Depression Visibility Wind Speed Wind Dir Waves Ship Positions

Emerald Princess

Last reported at 2017-Aug-20 13:30 UTC. Time now 2017-Aug-20 13:40 UTC.
Position N 47°38' W 122°23'.

Type: Ship. MMSI: 310531000.

Date/timePositionNaut miles runAvg speedWind from/ knotsBaromVisibWave heightAir tempDewpointWater temp
2017-Aug-20 13:30N 47°38' W 122°23'0 0.0
2017-Aug-20 13:00N 47°38' W 122°23'0 0.7
2017-Aug-20 12:30N 47°37' W 122°23'4 8.8
2017-Aug-20 12:00N 47°40' W 122°28'713.1
2017-Aug-20 11:30N 47°46' W 122°27'713.1
2017-Aug-20 11:00N 47°53' W 122°29'712.8
2017-Aug-20 10:30N 47°58' W 122°35'714.4
2017-Aug-20 10:01N 48°04' W 122°39'918.0
2017-Aug-20 09:30N 48°11' W 122°49'919.3
2017-Aug-20 09:00N 48°12' W 123°03'1019.3
2017-Aug-20 08:30N 48°11' W 123°18'612.5
2017-Aug-20 08:01N 48°11' W 123°27'714.8
2017-Aug-20 07:31N 48°19' W 123°27'612.9
2017-Aug-20 07:00N 48°25' W 123°24'0 0.1
2017-Aug-20 01:17N 48°25' W 123°24'0 1.4
2017-Aug-20 01:00N 48°25' W 123°24'4 7.3
2017-Aug-20 00:30N 48°21' W 123°24'510.8
2017-Aug-20 00:00N 48°16' W 123°26'713.7
2017-Aug-19 23:30N 48°13' W 123°36'815.4
2017-Aug-19 23:00N 48°13' W 123°47'714.9
2017-Aug-19 22:30N 48°14' W 123°58'815.9
2017-Aug-19 22:00N 48°18' W 124°09'816.1
2017-Aug-19 21:30N 48°21' W 124°20'815.4
2017-Aug-19 21:00N 48°24' W 124°30'815.4
2017-Aug-19 20:30N 48°27' W 124°41'714.9
2017-Aug-19 20:00N 48°28' W 124°52'815.4
2017-Aug-19 19:30N 48°29' W 125°04'815.7
2017-Aug-19 19:00N 48°31' W 125°15'815.3
2017-Aug-19 18:30N 48°35' W 125°25'816.2
2017-Aug-19 18:00N 48°39' W 125°36'816.4
2017-Aug-19 17:30N 48°43' W 125°46'816.5
2017-Aug-19 17:00N 48°47' W 125°57'816.2
2017-Aug-19 16:30N 48°52' W 126°08'816.7
2017-Aug-19 16:00N 48°56' W 126°18'816.9
2017-Aug-19 15:30N 49°00' W 126°29'917.4
2017-Aug-19 15:00N 49°05' W 126°41'1717.0
2017-Aug-19 14:00N 49°16' W 127°01'7017.4
2017-Aug-19 10:00N 50°00' W 128°24'   320 / 71024.610.8 14.012.216.0
2017-Aug-14 20:48N 51°24' W 129°50'718.9
2017-Aug-14 20:26N 51°17' W 129°46'1118.7
2017-Aug-14 19:50N 51°07' W 129°40'9416.2
2017-Aug-14 14:00N 49°54' W 128°06'6923.0 270 / 51019.510.8 13.012.114.0
2017-Aug-14 10:59N 49°07' W 126°48'1019.3
2017-Aug-14 10:28N 49°02' W 126°35'1735.8
2017-Aug-14 10:00N 48°54' W 126°12'75339.0 300 / 201017.210.8 13.013.014.0
2017-Aug-14 09:59N 48°57' W 126°22'1020.0
2017-Aug-14 09:31N 48°52' W 126°10'1020.3
2017-Aug-14 09:01N 48°47' W 125°56'1020.1
2017-Aug-14 08:31N 48°42' W 125°43'1020.0
2017-Aug-14 08:01N 48°36' W 125°31'1020.2
2017-Aug-14 07:31N 48°31' W 125°18'1020.5
2017-Aug-14 07:00N 48°31' W 125°02'1020.9
2017-Aug-14 06:31N 48°31' W 124°47'1020.4
2017-Aug-14 06:01N 48°27' W 124°32'1020.4
2017-Aug-14 05:31N 48°23' W 124°18'1020.0
2017-Aug-14 05:00N 48°19' W 124°04'1020.1
2017-Aug-14 04:31N 48°17' W 123°50'1019.5
2017-Aug-14 04:01N 48°15' W 123°35'917.6
2017-Aug-14 03:31N 48°11' W 123°23'5 9.2
2017-Aug-14 02:58N 48°10' W 123°16'818.0
2017-Aug-14 02:30N 48°13' W 123°04'918.4
2017-Aug-14 02:01N 48°12' W 122°51'816.9
2017-Aug-14 01:30N 48°08' W 122°40'918.5
2017-Aug-14 01:01N 47°59' W 122°35'918.8
2017-Aug-14 00:31N 47°51' W 122°27'816.8
2017-Aug-14 00:01N 47°42' W 122°27'611.4
2017-Aug-13 23:30N 47°37' W 122°23'0 0.7
2017-Aug-13 23:00N 47°38' W 122°23'0 0.0
2017-Aug-13 22:29N 47°38' W 122°23'0 0.0
2017-Aug-13 22:00N 47°38' W 122°23'0 0.0
2017-Aug-13 21:29N 47°38' W 122°23'0 0.0
2017-Aug-13 20:59N 47°38' W 122°23'0 0.0
2017-Aug-13 20:29N 47°38' W 122°23'0 0.0
2017-Aug-13 19:59N 47°38' W 122°23'0 0.0
2017-Aug-13 19:28N 47°38' W 122°23'0 0.0
2017-Aug-13 18:58N 47°38' W 122°23'0 0.0
2017-Aug-13 18:28N 47°38' W 122°23'0 0.0
2017-Aug-13 18:00N 47°38' W 122°23'0 0.0
2017-Aug-13 17:30N 47°38' W 122°23'0 0.0
2017-Aug-13 17:00N 47°38' W 122°23'0 0.0
2017-Aug-13 16:30N 47°38' W 122°23'0 0.0
2017-Aug-13 16:00N 47°38' W 122°23'0 0.0
2017-Aug-13 15:30N 47°38' W 122°23'0 0.0
2017-Aug-13 14:59N 47°38' W 122°23'0 0.0
2017-Aug-13 14:29N 47°38' W 122°23'0 0.0
2017-Aug-13 13:59N 47°38' W 122°23'0 0.0
2017-Aug-13 13:28N 47°38' W 122°23'0 0.0
2017-Aug-13 12:58N 47°38' W 122°23'1 1.2
2017-Aug-13 12:30N 47°37' W 122°23'5 9.6
2017-Aug-13 12:00N 47°40' W 122°28'714.8
2017-Aug-13 11:30N 47°48' W 122°27'815.3
2017-Aug-13 11:00N 47°55' W 122°30'714.6
2017-Aug-13 10:30N 48°00' W 122°38'815.7
2017-Aug-13 10:00N 48°08' W 122°42'917.2
2017-Aug-13 09:30N 48°11' W 122°54'917.3
2017-Aug-13 09:00N 48°12' W 123°07'816.5
2017-Aug-13 08:30N 48°11' W 123°19'612.9
2017-Aug-13 08:00N 48°12' W 123°28'816.9
2017-Aug-13 07:30N 48°20' W 123°26'510.1
2017-Aug-13 07:00N 48°25' W 123°24'0 0.0
2017-Aug-13 01:26N 48°25' W 123°24'1 1.3
2017-Aug-13 01:00N 48°25' W 123°24'4 8.0
2017-Aug-13 00:30N 48°21' W 123°24'5 9.6
2017-Aug-13 00:00N 48°16' W 123°26'612.3
2017-Aug-12 23:30N 48°13' W 123°34'815.7
2017-Aug-12 23:00N 48°13' W 123°46'714.9
2017-Aug-12 22:30N 48°14' W 123°57'816.8
2017-Aug-12 22:00N 48°17' W 124°08'816.3
2017-Aug-12 21:31N 48°21' W 124°20'714.8
2017-Aug-12 21:01N 48°24' W 124°30'715.0
2017-Aug-12 20:31N 48°27' W 124°40'815.2
2017-Aug-12 20:00N 48°28' W 124°51'714.9
2017-Aug-12 19:30N 48°28' W 125°02'815.4
2017-Aug-12 19:01N 48°30' W 125°14'714.9
2017-Aug-12 18:31N 48°34' W 125°23'815.1
2017-Aug-12 18:00N 48°38' W 125°33'816.5
2017-Aug-12 17:30N 48°42' W 125°44'816.6
2017-Aug-12 17:01N 48°46' W 125°55'815.9
2017-Aug-12 16:30N 48°51' W 126°05'815.6
2017-Aug-12 16:00N 48°55' W 126°15'816.4
2017-Aug-12 15:30N 48°59' W 126°26'816.7
2017-Aug-12 15:00N 49°03' W 126°37'1616.2
2017-Aug-12 14:00N 49°12' W 126°57'7117.6
2017-Aug-12 10:00N 50°00' W 128°18'7814.3 130 / 141016.8 2.2 12.512.511.0
2017-Aug-12 09:59N 50°04' W 128°26'1019.8
2017-Aug-12 09:28N 50°11' W 128°38'919.2
2017-Aug-12 08:59N 50°17' W 128°49'918.7
2017-Aug-12 08:31N 50°23' W 128°59'918.7
2017-Aug-12 08:01N 50°29' W 129°10'918.5
2017-Aug-12 07:30N 50°36' W 129°21'918.5
2017-Aug-12 07:00N 50°42' W 129°32'918.7
2017-Aug-12 06:31N 50°48' W 129°42'918.6
2017-Aug-12 06:01N 50°55' W 129°53'918.7
2017-Aug-12 05:31N 51°01' W 130°04'918.4
2017-Aug-12 05:01N 51°08' W 130°14'918.3
2017-Aug-12 04:30N 51°14' W 130°25'918.8
2017-Aug-12 04:01N 51°20' W 130°37'1018.4
2017-Aug-12 03:27N 51°28' W 130°48'2521.0
2017-Aug-12 02:15N 51°45' W 131°17'24920.4
2017-Aug-11 14:00N 55°30' W 134°18'   200 / 31013.1 5.4 12.5 7.411.0
Track history (hours):
 
Tides and Currents Weather Stations Pressure Air Temp Water Temp Dewpoint Dewpoint Depression Visibility Wind Speed Wind Dir Waves Ship Positions

Emerald Princess

Last reported at 2017-Aug-20 13:30 UTC. Time now 2017-Aug-20 13:40 UTC.
Position N 47°38' W 122°23'.

Type: Ship. MMSI: 310531000.

Date/timePositionNaut miles runAvg speedWind from/ knotsBaromVisibWave heightAir tempDewpointWater temp
2017-Aug-20 13:30N 47°38' W 122°23'0 0.0
2017-Aug-20 13:00N 47°38' W 122°23'0 0.7
2017-Aug-20 12:30N 47°37' W 122°23'4 8.8
2017-Aug-20 12:00N 47°40' W 122°28'713.1
2017-Aug-20 11:30N 47°46' W 122°27'713.1
2017-Aug-20 11:00N 47°53' W 122°29'712.8
2017-Aug-20 10:30N 47°58' W 122°35'714.4
2017-Aug-20 10:01N 48°04' W 122°39'918.0
2017-Aug-20 09:30N 48°11' W 122°49'919.3
2017-Aug-20 09:00N 48°12' W 123°03'1019.3
2017-Aug-20 08:30N 48°11' W 123°18'612.5
2017-Aug-20 08:01N 48°11' W 123°27'714.8
2017-Aug-20 07:31N 48°19' W 123°27'612.9
2017-Aug-20 07:00N 48°25' W 123°24'0 0.1
2017-Aug-20 01:17N 48°25' W 123°24'0 1.4
2017-Aug-20 01:00N 48°25' W 123°24'4 7.3
2017-Aug-20 00:30N 48°21' W 123°24'510.8
2017-Aug-20 00:00N 48°16' W 123°26'713.7
2017-Aug-19 23:30N 48°13' W 123°36'815.4
2017-Aug-19 23:00N 48°13' W 123°47'714.9
2017-Aug-19 22:30N 48°14' W 123°58'815.9
2017-Aug-19 22:00N 48°18' W 124°09'816.1
2017-Aug-19 21:30N 48°21' W 124°20'815.4
2017-Aug-19 21:00N 48°24' W 124°30'815.4
2017-Aug-19 20:30N 48°27' W 124°41'714.9
2017-Aug-19 20:00N 48°28' W 124°52'815.4
2017-Aug-19 19:30N 48°29' W 125°04'815.7
2017-Aug-19 19:00N 48°31' W 125°15'815.3
2017-Aug-19 18:30N 48°35' W 125°25'816.2
2017-Aug-19 18:00N 48°39' W 125°36'816.4
2017-Aug-19 17:30N 48°43' W 125°46'816.5
2017-Aug-19 17:00N 48°47' W 125°57'816.2
2017-Aug-19 16:30N 48°52' W 126°08'816.7
2017-Aug-19 16:00N 48°56' W 126°18'816.9
2017-Aug-19 15:30N 49°00' W 126°29'917.4
2017-Aug-19 15:00N 49°05' W 126°41'1717.0
2017-Aug-19 14:00N 49°16' W 127°01'7017.4
2017-Aug-19 10:00N 50°00' W 128°24'   320 / 71024.610.8 14.012.216.0
2017-Aug-14 20:48N 51°24' W 129°50'718.9
2017-Aug-14 20:26N 51°17' W 129°46'1118.7
2017-Aug-14 19:50N 51°07' W 129°40'9416.2
2017-Aug-14 14:00N 49°54' W 128°06'6923.0 270 / 51019.510.8 13.012.114.0
2017-Aug-14 10:59N 49°07' W 126°48'1019.3
2017-Aug-14 10:28N 49°02' W 126°35'1735.8
2017-Aug-14 10:00N 48°54' W 126°12'75339.0 300 / 201017.210.8 13.013.014.0
2017-Aug-14 09:59N 48°57' W 126°22'1020.0
2017-Aug-14 09:31N 48°52' W 126°10'1020.3
2017-Aug-14 09:01N 48°47' W 125°56'1020.1
2017-Aug-14 08:31N 48°42' W 125°43'1020.0
2017-Aug-14 08:01N 48°36' W 125°31'1020.2
2017-Aug-14 07:31N 48°31' W 125°18'1020.5
2017-Aug-14 07:00N 48°31' W 125°02'1020.9
2017-Aug-14 06:31N 48°31' W 124°47'1020.4
2017-Aug-14 06:01N 48°27' W 124°32'1020.4
2017-Aug-14 05:31N 48°23' W 124°18'1020.0
2017-Aug-14 05:00N 48°19' W 124°04'1020.1
2017-Aug-14 04:31N 48°17' W 123°50'1019.5
2017-Aug-14 04:01N 48°15' W 123°35'917.6
2017-Aug-14 03:31N 48°11' W 123°23'5 9.2
2017-Aug-14 02:58N 48°10' W 123°16'818.0
2017-Aug-14 02:30N 48°13' W 123°04'918.4
2017-Aug-14 02:01N 48°12' W 122°51'816.9
2017-Aug-14 01:30N 48°08' W 122°40'918.5
2017-Aug-14 01:01N 47°59' W 122°35'918.8
2017-Aug-14 00:31N 47°51' W 122°27'816.8
2017-Aug-14 00:01N 47°42' W 122°27'611.4
2017-Aug-13 23:30N 47°37' W 122°23'0 0.7
2017-Aug-13 23:00N 47°38' W 122°23'0 0.0
2017-Aug-13 22:29N 47°38' W 122°23'0 0.0
2017-Aug-13 22:00N 47°38' W 122°23'0 0.0
2017-Aug-13 21:29N 47°38' W 122°23'0 0.0
2017-Aug-13 20:59N 47°38' W 122°23'0 0.0
2017-Aug-13 20:29N 47°38' W 122°23'0 0.0
2017-Aug-13 19:59N 47°38' W 122°23'0 0.0
2017-Aug-13 19:28N 47°38' W 122°23'0 0.0
2017-Aug-13 18:58N 47°38' W 122°23'0 0.0
2017-Aug-13 18:28N 47°38' W 122°23'0 0.0
2017-Aug-13 18:00N 47°38' W 122°23'0 0.0
2017-Aug-13 17:30N 47°38' W 122°23'0 0.0
2017-Aug-13 17:00N 47°38' W 122°23'0 0.0
2017-Aug-13 16:30N 47°38' W 122°23'0 0.0
2017-Aug-13 16:00N 47°38' W 122°23'0 0.0
2017-Aug-13 15:30N 47°38' W 122°23'0 0.0
2017-Aug-13 14:59N 47°38' W 122°23'0 0.0
2017-Aug-13 14:29N 47°38' W 122°23'0 0.0
2017-Aug-13 13:59N 47°38' W 122°23'0 0.0
2017-Aug-13 13:28N 47°38' W 122°23'0 0.0
2017-Aug-13 12:58N 47°38' W 122°23'1 1.2
2017-Aug-13 12:30N 47°37' W 122°23'5 9.6
2017-Aug-13 12:00N 47°40' W 122°28'714.8
2017-Aug-13 11:30N 47°48' W 122°27'815.3
2017-Aug-13 11:00N 47°55' W 122°30'714.6
2017-Aug-13 10:30N 48°00' W 122°38'815.7
2017-Aug-13 10:00N 48°08' W 122°42'917.2
2017-Aug-13 09:30N 48°11' W 122°54'917.3
2017-Aug-13 09:00N 48°12' W 123°07'816.5
2017-Aug-13 08:30N 48°11' W 123°19'612.9
2017-Aug-13 08:00N 48°12' W 123°28'816.9
2017-Aug-13 07:30N 48°20' W 123°26'510.1
2017-Aug-13 07:00N 48°25' W 123°24'0 0.0
2017-Aug-13 01:26N 48°25' W 123°24'1 1.3
2017-Aug-13 01:00N 48°25' W 123°24'4 8.0
2017-Aug-13 00:30N 48°21' W 123°24'5 9.6
2017-Aug-13 00:00N 48°16' W 123°26'612.3
2017-Aug-12 23:30N 48°13' W 123°34'815.7
2017-Aug-12 23:00N 48°13' W 123°46'714.9
2017-Aug-12 22:30N 48°14' W 123°57'816.8
2017-Aug-12 22:00N 48°17' W 124°08'816.3
2017-Aug-12 21:31N 48°21' W 124°20'714.8
2017-Aug-12 21:01N 48°24' W 124°30'715.0
2017-Aug-12 20:31N 48°27' W 124°40'815.2
2017-Aug-12 20:00N 48°28' W 124°51'714.9
2017-Aug-12 19:30N 48°28' W 125°02'815.4
2017-Aug-12 19:01N 48°30' W 125°14'714.9
2017-Aug-12 18:31N 48°34' W 125°23'815.1
2017-Aug-12 18:00N 48°38' W 125°33'816.5
2017-Aug-12 17:30N 48°42' W 125°44'816.6
2017-Aug-12 17:01N 48°46' W 125°55'815.9
2017-Aug-12 16:30N 48°51' W 126°05'815.6
2017-Aug-12 16:00N 48°55' W 126°15'816.4
2017-Aug-12 15:30N 48°59' W 126°26'816.7
2017-Aug-12 15:00N 49°03' W 126°37'1616.2
2017-Aug-12 14:00N 49°12' W 126°57'7117.6
2017-Aug-12 10:00N 50°00' W 128°18'7814.3 130 / 141016.8 2.2 12.512.511.0
2017-Aug-12 09:59N 50°04' W 128°26'1019.8
2017-Aug-12 09:28N 50°11' W 128°38'919.2
2017-Aug-12 08:59N 50°17' W 128°49'918.7
2017-Aug-12 08:31N 50°23' W 128°59'918.7
2017-Aug-12 08:01N 50°29' W 129°10'918.5
2017-Aug-12 07:30N 50°36' W 129°21'918.5
2017-Aug-12 07:00N 50°42' W 129°32'918.7
2017-Aug-12 06:31N 50°48' W 129°42'918.6
2017-Aug-12 06:01N 50°55' W 129°53'918.7
2017-Aug-12 05:31N 51°01' W 130°04'918.4
2017-Aug-12 05:01N 51°08' W 130°14'918.3
2017-Aug-12 04:30N 51°14' W 130°25'918.8
2017-Aug-12 04:01N 51°20' W 130°37'1018.4
2017-Aug-12 03:27N 51°28' W 130°48'2521.0
2017-Aug-12 02:15N 51°45' W 131°17'24920.4
2017-Aug-11 14:00N 55°30' W 134°18'   200 / 31013.1 5.4 12.5 7.411.0

Dump ship's entire track history